Time;durP1;ratioP1;P1;durP2;ratioP2;P2;SDS_P1;SDS_P2;PMS_P1;PMS_P2;Temp;Humidity;BMP_temperature;BMP_pressure;BME280_temperature;BME280_humidity;BME280_pressure;Samples;Min_cycle;Max_cycle;Signal;HPM_P1;HPM_P2
2022/07/17 00:02:14;;;;;;;5.67;4.10;;;;;;;26.19;47.37;97253.66;4801977;29;20215;-70
2022/07/17 00:04:41;;;;;;;5.87;3.93;;;;;;;25.33;48.85;97253.78;4801915;29;20735;-70
2022/07/17 00:07:08;;;;;;;4.77;4.27;;;;;;;25.41;49.43;97257.38;4802076;29;20271;-69
2022/07/17 00:09:35;;;;;;;11.17;4.30;;;;;;;25.55;48.67;97254.16;4801918;29;20237;-70
2022/07/17 00:12:02;;;;;;;6.37;3.80;;;;;;;25.32;49.24;97255.63;4802003;29;20275;-70
2022/07/17 00:14:29;;;;;;;4.87;4.43;;;;;;;25.25;49.85;97257.25;4801988;29;20207;-70
2022/07/17 00:16:57;;;;;;;8.23;4.40;;;;;;;25.41;49.54;97256.56;4801777;29;20295;-69
2022/07/17 00:19:25;;;;;;;5.73;4.33;;;;;;;25.52;48.95;97259.75;4802013;29;20223;-69
2022/07/17 00:21:52;;;;;;;5.53;4.70;;;;;;;25.59;49.08;97254.66;4801735;29;20279;-69
2022/07/17 00:24:22;;;;;;;5.60;4.30;;;;;;;25.63;48.52;97262.16;4801703;29;20264;-69
2022/07/17 00:26:51;;;;;;;4.40;4.00;;;;;;;25.25;49.75;97261.69;4801693;29;20698;-70
2022/07/17 00:29:19;;;;;;;7.40;4.37;;;;;;;24.98;50.21;97252.06;4801722;29;20771;-70
2022/07/17 00:31:46;;;;;;;6.13;4.17;;;;;;;24.69;50.79;97252.28;4801482;29;20217;-70
2022/07/17 00:34:14;;;;;;;6.03;4.20;;;;;;;24.49;51.41;97244.66;4801499;29;20265;-70
2022/07/17 00:36:41;;;;;;;7.03;4.00;;;;;;;24.35;51.09;97247.81;4801426;29;20212;-70
2022/07/17 00:39:08;;;;;;;5.37;3.70;;;;;;;24.20;51.83;97242.19;4801356;29;20264;-70
2022/07/17 00:41:35;;;;;;;6.67;3.87;;;;;;;24.14;51.59;97238.34;4801475;29;20653;-70
2022/07/17 00:44:08;;;;;;;4.67;4.27;;;;;;;24.49;51.13;97247.28;4801650;29;20211;-70
2022/07/17 00:46:35;;;;;;;7.30;4.30;;;;;;;24.63;50.32;97244.09;4801322;29;20213;-70
2022/07/17 00:49:03;;;;;;;4.53;3.73;;;;;;;24.54;50.42;97243.22;4800503;29;20217;-70
2022/07/17 00:51:30;;;;;;;5.27;3.93;;;;;;;24.51;51.00;97247.97;4801241;29;20273;-69
2022/07/17 00:53:58;;;;;;;4.83;4.20;;;;;;;24.16;51.27;97246.97;4801184;29;20208;-69
2022/07/17 00:56:31;;;;;;;6.90;4.17;;;;;;;23.93;52.36;97250.97;4801157;29;20220;-70
2022/07/17 00:59:00;;;;;;;4.53;4.00;;;;;;;24.23;51.89;97250.66;4801046;29;20216;-70
2022/07/17 01:01:27;;;;;;;4.50;4.10;;;;;;;24.24;51.93;97259.44;4801330;29;20625;-70
2022/07/17 01:03:54;;;;;;;4.33;3.63;;;;;;;24.43;51.20;97259.31;4801433;29;20236;-70
2022/07/17 01:06:21;;;;;;;5.53;3.70;;;;;;;24.48;51.54;97264.19;4801165;29;20204;-69
2022/07/17 01:08:48;;;;;;;4.30;3.90;;;;;;;24.53;51.58;97262.72;4801121;29;20298;-70
2022/07/17 01:11:15;;;;;;;4.17;3.80;;;;;;;24.68;50.41;97268.34;4800723;29;20387;-70
2022/07/17 01:13:43;;;;;;;5.83;3.80;;;;;;;24.81;50.87;97250.28;4800991;29;20235;-71
2022/07/17 01:16:10;;;;;;;5.17;4.17;;;;;;;24.87;50.76;97270.88;4800737;29;20222;-70
2022/07/17 01:18:37;;;;;;;4.33;3.70;;;;;;;24.83;50.40;97264.22;4800718;29;20735;-70
2022/07/17 01:21:07;;;;;;;5.13;3.73;;;;;;;25.03;50.45;97273.66;4800820;29;20274;-70
2022/07/17 01:23:34;;;;;;;4.60;3.83;;;;;;;25.09;49.78;97267.72;4800715;29;20278;-70
2022/07/17 01:26:01;;;;;;;3.93;3.50;;;;;;;25.09;50.00;97261.59;4784073;29;20238;-70
2022/07/17 01:28:30;;;;;;;4.30;3.77;;;;;;;25.02;50.03;97264.00;4800589;29;20214;-70
2022/07/17 01:30:57;;;;;;;4.23;3.70;;;;;;;25.09;49.67;97266.88;4800558;29;20246;-70
2022/07/17 01:33:24;;;;;;;5.97;3.90;;;;;;;25.15;50.13;97263.63;4800682;29;20581;-70
2022/07/17 01:35:52;;;;;;;4.73;3.83;;;;;;;25.29;49.62;97269.19;4784267;29;20251;-70
2022/07/17 01:38:19;;;;;;;4.40;3.80;;;;;;;25.21;49.57;97263.84;4800555;29;20238;-70
2022/07/17 01:40:46;;;;;;;5.80;3.60;;;;;;;25.15;49.89;97261.81;4800730;29;20220;-70
2022/07/17 01:43:13;;;;;;;4.20;3.73;;;;;;;25.11;49.22;97268.41;4800467;29;20271;-70
2022/07/17 01:45:40;;;;;;;7.63;4.33;;;;;;;24.85;50.23;97265.69;4800572;29;20211;-70
2022/07/17 01:48:07;;;;;;;5.10;4.00;;;;;;;24.93;50.29;97257.00;4800227;29;20213;-70
2022/07/17 01:50:34;;;;;;;5.37;3.83;;;;;;;24.82;50.46;97258.06;4800243;29;20319;-70
2022/07/17 01:53:01;;;;;;;6.07;4.00;;;;;;;24.84;50.41;97257.91;4800264;29;20301;-70
2022/07/17 01:55:28;;;;;;;4.10;3.73;;;;;;;24.78;50.63;97262.00;4800340;29;20293;-70
2022/07/17 01:57:55;;;;;;;4.90;4.40;;;;;;;24.88;50.22;97259.28;4800263;29;20213;-70
2022/07/17 02:00:24;;;;;;;4.30;3.80;;;;;;;24.86;50.12;97250.66;4799931;29;20208;-70
2022/07/17 02:02:51;;;;;;;6.50;4.03;;;;;;;24.71;50.36;97257.47;4798915;29;20217;-70
2022/07/17 02:05:18;;;;;;;3.87;3.57;;;;;;;24.56;50.81;97245.72;4799965;29;20212;-70
2022/07/17 02:07:45;;;;;;;4.40;3.70;;;;;;;24.64;50.78;97249.28;4798925;29;20241;-70
2022/07/17 02:10:16;;;;;;;3.60;3.30;;;;;;;24.66;50.87;97246.47;4800358;29;20271;-70
2022/07/17 02:12:44;;;;;;;3.93;3.57;;;;;;;24.73;49.99;97250.19;4800265;29;20217;-70
2022/07/17 02:15:31;;;;;;;6.97;3.87;;;;;;;24.93;49.54;97255.19;4798826;29;20228;-70
2022/07/17 02:17:58;;;;;;;3.70;3.40;;;;;;;24.94;48.88;97245.41;4799809;29;20807;-70
2022/07/17 02:20:25;;;;;;;6.30;3.23;;;;;;;24.92;48.26;97266.75;4800141;29;20230;-70
2022/07/17 02:22:52;;;;;;;5.50;3.80;;;;;;;24.98;48.61;97254.72;4800271;29;20204;-70
2022/07/17 02:25:19;;;;;;;4.87;3.10;;;;;;;24.90;48.58;97257.31;4800231;29;20619;-71
2022/07/17 02:27:46;;;;;;;4.33;3.70;;;;;;;24.85;49.18;97259.59;4799803;29;20619;-70
2022/07/17 02:30:16;;;;;;;6.53;3.10;;;;;;;24.70;48.68;97253.97;4800051;29;20626;-70
2022/07/17 02:32:44;;;;;;;4.27;3.23;;;;;;;24.77;49.50;97268.28;4799590;29;20216;-70
2022/07/17 02:35:12;;;;;;;8.67;3.77;;;;;;;24.67;50.51;97279.91;4799732;29;20208;-69
2022/07/17 02:37:41;;;;;;;5.70;3.90;;;;;;;24.55;51.41;97278.47;4799638;29;20688;-69
2022/07/17 02:40:10;;;;;;;4.47;3.77;;;;;;;24.46;51.37;97274.09;4799754;29;20217;-70
2022/07/17 02:42:37;;;;;;;6.20;3.80;;;;;;;24.03;51.69;97230.59;4800115;29;20212;-69
2022/07/17 02:45:06;;;;;;;7.23;4.10;;;;;;;24.28;52.24;97276.69;4799771;29;20274;-70
2022/07/17 02:47:34;;;;;;;4.70;4.30;;;;;;;24.06;53.27;97277.94;4799613;29;21270;-70
2022/07/17 02:50:04;;;;;;;5.20;4.17;;;;;;;23.91;53.63;97284.66;4799553;29;20335;-70
2022/07/17 02:52:31;;;;;;;6.60;4.60;;;;;;;23.96;54.13;97278.94;4799649;29;20291;-70
2022/07/17 02:54:58;;;;;;;6.03;3.90;;;;;;;23.88;54.03;97286.78;4799475;29;21058;-70
2022/07/17 02:57:25;;;;;;;5.77;4.60;;;;;;;23.79;54.22;97285.84;4798191;29;20212;-70
2022/07/17 02:59:52;;;;;;;4.67;4.17;;;;;;;23.53;55.21;97291.94;4799650;29;20642;-70
2022/07/17 03:02:19;;;;;;;4.87;4.40;;;;;;;23.05;56.63;97287.53;4799557;29;20218;-70
2022/07/17 03:04:46;;;;;;;7.50;4.67;;;;;;;22.81;57.64;97291.59;4799578;29;20757;-70
2022/07/17 03:07:13;;;;;;;4.67;4.27;;;;;;;22.65;58.31;97287.69;4799508;29;20255;-70
2022/07/17 03:09:40;;;;;;;7.17;4.30;;;;;;;22.54;58.26;97284.31;4799284;29;20266;-70
2022/07/17 03:12:07;;;;;;;5.27;4.20;;;;;;;22.90;57.89;97296.84;4801435;29;20207;-70
2022/07/17 03:14:34;;;;;;;6.57;4.07;;;;;;;23.03;57.34;97297.41;4802980;29;20212;-70
2022/07/17 03:17:01;;;;;;;4.83;4.30;;;;;;;23.14;57.16;97299.06;4802889;29;20817;-70
2022/07/17 03:19:29;;;;;;;6.33;4.97;;;;;;;23.19;57.01;97302.13;4802732;29;20213;-70
2022/07/17 03:21:56;;;;;;;6.13;4.30;;;;;;;23.13;57.41;97307.97;4786706;29;20286;-69
2022/07/17 03:24:23;;;;;;;5.17;4.53;;;;;;;23.09;57.08;97291.56;4786176;29;20543;-70
2022/07/17 03:26:50;;;;;;;6.63;4.53;;;;;;;23.20;56.95;97306.44;4802380;29;20717;-69
2022/07/17 03:29:18;;;;;;;8.70;4.40;;;;;;;23.02;57.15;97295.72;4802749;29;20237;-70
2022/07/17 03:31:45;;;;;;;5.67;4.90;;;;;;;23.23;56.96;97319.34;4802564;29;20238;-69
2022/07/17 03:34:13;;;;;;;4.83;4.43;;;;;;;23.11;56.71;97312.56;4802530;29;20654;-69
2022/07/17 03:36:40;;;;;;;5.83;4.50;;;;;;;23.15;56.83;97311.31;4802743;29;20595;-70
2022/07/17 03:39:07;;;;;;;6.67;4.23;;;;;;;23.07;56.79;97312.00;4802943;29;20719;-70
2022/07/17 03:41:34;;;;;;;7.47;4.60;;;;;;;23.09;56.74;97312.69;4802381;29;20210;-70
2022/07/17 03:44:01;;;;;;;7.30;4.70;;;;;;;23.02;56.75;97318.69;4802449;29;20210;-69
2022/07/17 03:46:28;;;;;;;6.20;4.33;;;;;;;23.18;55.87;97318.97;4802125;29;20217;-70
2022/07/17 03:48:55;;;;;;;4.37;3.97;;;;;;;23.49;56.05;97320.47;4802193;29;20257;-70
2022/07/17 03:51:22;;;;;;;6.17;4.37;;;;;;;23.90;54.73;97313.94;4802271;29;20718;-70
2022/07/17 03:53:49;;;;;;;5.60;4.03;;;;;;;24.40;53.38;97332.94;4802091;29;20211;-69
2022/07/17 03:56:16;;;;;;;4.80;4.30;;;;;;;24.77;52.83;97323.13;4802201;29;20758;-69
2022/07/17 03:58:43;;;;;;;4.80;4.33;;;;;;;25.14;52.13;97329.09;4802123;29;20582;-69
2022/07/17 04:01:10;;;;;;;4.47;4.07;;;;;;;25.28;51.02;97335.66;4802043;29;20624;-69
2022/07/17 04:03:37;;;;;;;5.93;4.43;;;;;;;25.57;50.80;97347.69;4802056;29;20718;-69
2022/07/17 04:06:04;;;;;;;6.83;4.20;;;;;;;25.68;51.18;97336.78;4802063;29;20229;-69
2022/07/17 04:08:31;;;;;;;5.30;4.10;;;;;;;25.77;49.32;97349.13;4801945;29;20595;-69
2022/07/17 04:10:58;;;;;;;6.53;4.37;;;;;;;25.66;49.53;97362.66;4802025;29;20221;-71
2022/07/17 04:13:25;;;;;;;8.27;4.80;;;;;;;25.60;50.05;97359.78;4802207;29;20218;-70
2022/07/17 04:15:52;;;;;;;6.37;4.40;;;;;;;25.80;48.72;97358.63;4801601;29;20214;-70
2022/07/17 04:18:20;;;;;;;6.77;3.90;;;;;;;25.83;46.89;97350.31;4801797;29;20764;-71
2022/07/17 04:20:48;;;;;;;5.00;3.77;;;;;;;25.68;46.97;97365.97;4801606;29;20624;-70
2022/07/17 04:23:16;;;;;;;6.00;3.40;;;;;;;25.87;46.23;97380.88;4801576;29;20225;-70
2022/07/17 04:25:43;;;;;;;4.33;3.10;;;;;;;25.86;44.40;97378.38;4801805;29;20211;-70
2022/07/17 04:28:11;;;;;;;5.23;3.40;;;;;;;26.11;42.65;97372.25;4801518;29;20262;-69
2022/07/17 04:30:39;;;;;;;4.43;3.00;;;;;;;26.39;42.04;97381.69;4801654;29;20265;-70
2022/07/17 04:33:06;;;;;;;2.93;2.63;;;;;;;26.52;39.94;97374.09;4801532;29;20207;-69
2022/07/17 04:35:33;;;;;;;3.20;2.60;;;;;;;26.66;39.13;97385.94;4801445;29;20274;-70
2022/07/17 04:38:01;;;;;;;3.60;2.80;;;;;;;26.63;38.27;97385.25;4801839;29;20332;-70
2022/07/17 04:40:34;;;;;;;4.70;2.40;;;;;;;26.71;38.32;97384.44;4801516;29;20535;-69
2022/07/17 04:43:02;;;;;;;4.57;2.67;;;;;;;26.62;37.97;97388.09;4801538;29;20207;-70
2022/07/17 04:45:30;;;;;;;8.20;3.10;;;;;;;26.59;37.72;97380.41;4801256;29;20215;-69
2022/07/17 04:47:58;;;;;;;5.73;2.63;;;;;;;26.93;36.73;97388.38;4801607;29;20238;-70
2022/07/17 04:50:25;;;;;;;5.43;2.90;;;;;;;26.88;36.78;97380.88;4801359;29;20230;-69
2022/07/17 04:52:52;;;;;;;5.73;2.60;;;;;;;27.07;36.93;97387.72;4801368;29;20300;-71
2022/07/17 04:55:19;;;;;;;2.57;2.23;;;;;;;27.04;36.25;97385.38;4801402;29;20304;-70
2022/07/17 04:57:46;;;;;;;7.10;2.30;;;;;;;27.12;36.72;97386.22;4801170;29;20597;-71
2022/07/17 05:00:15;;;;;;;5.77;2.67;;;;;;;27.29;36.23;97393.22;4801265;29;20260;-71
2022/07/17 05:02:42;;;;;;;3.43;2.70;;;;;;;27.25;36.15;97381.25;4800931;29;20293;-71
2022/07/17 05:05:09;;;;;;;4.13;2.23;;;;;;;27.75;35.04;97398.91;4800977;29;20210;-70
2022/07/17 05:07:36;;;;;;;4.40;2.60;;;;;;;27.97;34.48;97385.78;4800793;29;20210;-70
2022/07/17 05:10:04;;;;;;;3.83;2.30;;;;;;;28.21;34.42;97389.38;4800085;29;20223;-70
2022/07/17 05:12:31;;;;;;;10.17;3.40;;;;;;;28.53;33.64;97387.44;4800935;29;20228;-70
2022/07/17 05:14:58;;;;;;;3.10;2.53;;;;;;;28.77;32.92;97391.84;4800841;29;20286;-70
2022/07/17 05:17:25;;;;;;;2.50;2.20;;;;;;;28.46;33.03;97398.97;4812633;29;20612;-70
2022/07/17 05:19:52;;;;;;;3.30;2.30;;;;;;;28.37;33.35;97371.50;4819082;29;20206;-70
2022/07/17 05:22:19;;;;;;;4.40;2.50;;;;;;;28.41;33.06;97402.13;4818649;29;20230;-70
2022/07/17 05:24:46;;;;;;;4.47;2.20;;;;;;;28.15;33.19;97417.53;4818930;29;20747;-71
2022/07/17 05:27:13;;;;;;;3.50;2.00;;;;;;;28.11;33.40;97411.69;4818904;29;20202;-71
2022/07/17 05:29:40;;;;;;;3.53;2.43;;;;;;;28.29;33.40;97411.50;4818755;29;20209;-71
2022/07/17 05:32:07;;;;;;;5.00;2.43;;;;;;;28.11;33.09;97409.03;4818915;29;20305;-71
2022/07/17 05:34:34;;;;;;;4.43;2.20;;;;;;;28.31;33.42;97406.84;4818623;29;20693;-71
2022/07/17 05:37:01;;;;;;;2.07;1.87;;;;;;;28.60;33.09;97420.44;4818922;29;20206;-71
2022/07/17 05:39:28;;;;;;;5.13;2.33;;;;;;;28.73;32.37;97412.69;4803928;29;20217;-71
2022/07/17 05:41:55;;;;;;;5.00;2.10;;;;;;;28.33;32.48;97420.81;4797197;29;20653;-71
2022/07/17 05:44:22;;;;;;;4.10;2.33;;;;;;;28.34;32.46;97419.81;4808701;29;20214;-71
2022/07/17 05:46:49;;;;;;;2.80;2.47;;;;;;;28.39;32.79;97413.97;4800150;29;20759;-71
2022/07/17 05:49:16;;;;;;;4.33;2.50;;;;;;;28.10;32.56;97415.38;4802580;29;20297;-71
2022/07/17 05:51:43;;;;;;;2.63;2.10;;;;;;;27.96;32.95;97418.75;4818939;29;20234;-71
2022/07/17 05:54:10;;;;;;;2.67;1.80;;;;;;;27.64;33.53;97402.75;4818690;29;20221;-71
2022/07/17 05:56:37;;;;;;;4.47;2.17;;;;;;;27.66;33.74;97416.72;4819260;29;20282;-71
2022/07/17 05:59:04;;;;;;;3.03;2.10;;;;;;;27.71;32.63;97402.91;4818838;29;20615;-70
2022/07/17 06:01:31;;;;;;;3.10;2.30;;;;;;;27.97;32.62;97412.41;4820196;29;20210;-71
2022/07/17 06:03:58;;;;;;;6.40;2.27;;;;;;;28.23;32.16;97398.03;4809535;29;20610;-70
2022/07/17 06:06:25;;;;;;;3.00;2.20;;;;;;;28.03;32.04;97402.88;4810185;29;20218;-72
2022/07/17 06:08:52;;;;;;;3.10;2.17;;;;;;;28.08;31.54;97409.41;4784488;29;20309;-71
2022/07/17 06:11:19;;;;;;;7.30;2.40;;;;;;;27.89;31.99;97417.72;4800370;29;20759;-72
2022/07/17 06:13:54;;;;;;;4.60;2.13;;;;;;;27.81;32.27;97398.25;4804447;29;20217;-70
2022/07/17 06:16:21;;;;;;;6.33;2.20;;;;;;;27.83;32.21;97399.75;4804116;29;20252;-71
2022/07/17 06:18:48;;;;;;;4.23;2.40;;;;;;;27.83;32.04;97399.75;4800035;29;20297;-70
2022/07/17 06:21:15;;;;;;;3.47;2.00;;;;;;;27.72;32.72;97404.59;4799861;29;20282;-69
2022/07/17 06:23:42;;;;;;;2.70;2.10;;;;;;;27.99;32.73;97402.41;4799917;29;20684;-71
2022/07/17 06:26:09;;;;;;;7.07;2.67;;;;;;;27.97;31.58;97374.28;4800370;29;20215;-71
2022/07/17 06:28:35;;;;;;;4.93;2.20;;;;;;;27.87;31.15;97400.22;4799724;29;20946;-72
2022/07/17 06:31:02;;;;;;;2.40;2.10;;;;;;;27.92;31.52;97404.06;4799649;29;20379;-72
2022/07/17 06:33:29;;;;;;;4.07;2.57;;;;;;;28.39;32.07;97406.81;4797974;29;20719;-71
2022/07/17 06:35:56;;;;;;;4.93;2.60;;;;;;;28.55;31.16;97401.41;4795575;29;20261;-71
2022/07/17 06:38:23;;;;;;;4.27;2.17;;;;;;;28.48;31.21;97413.75;4781426;29;20207;-72
2022/07/17 06:40:50;;;;;;;4.97;2.50;;;;;;;28.83;31.46;97409.81;4781389;29;20211;-72
2022/07/17 06:43:18;;;;;;;3.83;2.83;;;;;;;29.02;30.51;97400.56;4781783;29;20207;-73
2022/07/17 06:45:45;;;;;;;3.13;2.40;;;;;;;29.05;29.94;97410.84;4781736;29;20215;-71
2022/07/17 06:48:12;;;;;;;3.63;2.33;;;;;;;29.05;30.56;97405.53;4785393;29;20222;-71
2022/07/17 06:50:39;;;;;;;2.97;2.00;;;;;;;28.92;30.24;97422.94;4786619;29;20647;-70
2022/07/17 06:53:06;;;;;;;3.00;2.20;;;;;;;28.83;30.08;97418.63;4785894;29;20268;-71
2022/07/17 06:55:34;;;;;;;3.10;2.10;;;;;;;28.76;29.71;97401.69;4801691;29;20218;-73
2022/07/17 06:58:01;;;;;;;6.80;2.70;;;;;;;28.81;30.20;97398.50;4802342;29;20604;-73
2022/07/17 07:00:28;;;;;;;4.13;2.73;;;;;;;28.92;29.74;97409.59;4799020;29;20326;-72
2022/07/17 07:02:58;;;;;;;3.93;2.23;;;;;;;28.83;29.69;97410.63;4795748;29;20641;-71
2022/07/17 07:05:25;;;;;;;3.67;2.10;;;;;;;28.74;29.55;97418.84;4783180;29;20210;-71
2022/07/17 07:07:52;;;;;;;4.33;2.10;;;;;;;28.89;29.53;97431.25;4768035;29;20207;-70
2022/07/17 07:10:20;;;;;;;4.23;2.30;;;;;;;28.92;29.30;97430.09;4768497;29;20207;-71
2022/07/17 07:12:47;;;;;;;4.43;2.40;;;;;;;29.08;29.48;97421.19;4784190;29;20247;-71
2022/07/17 07:15:14;;;;;;;5.03;2.17;;;;;;;28.93;29.36;97429.91;4784592;29;20607;-70
2022/07/17 07:17:41;;;;;;;2.30;1.80;;;;;;;28.85;29.05;97429.16;4789023;29;20812;-70
2022/07/17 07:20:09;;;;;;;4.57;2.20;;;;;;;28.60;29.75;97435.59;4794202;29;20207;-71
2022/07/17 07:22:37;;;;;;;3.47;1.93;;;;;;;28.71;30.04;97425.34;4795131;29;20218;-71
2022/07/17 07:25:04;;;;;;;5.40;2.30;;;;;;;28.88;30.21;97432.28;4794538;29;20722;-70
2022/07/17 07:27:32;;;;;;;3.00;2.10;;;;;;;28.70;30.81;97418.38;4775351;29;20207;-70
2022/07/17 07:29:59;;;;;;;2.73;2.30;;;;;;;28.72;31.07;97416.38;4794048;29;20777;-70
2022/07/17 07:32:26;;;;;;;4.00;2.50;;;;;;;28.76;30.51;97419.50;4791630;29;20250;-70
2022/07/17 07:34:54;;;;;;;4.03;2.70;;;;;;;28.94;30.45;97404.06;4784079;29;20195;-71
2022/07/17 07:37:21;;;;;;;3.57;2.30;;;;;;;29.05;30.33;97429.53;4799801;29;20216;-71
2022/07/17 07:40:28;;;;;;;2.90;2.23;;;;;;;28.92;30.75;97438.09;4782817;29;20310;-70
2022/07/17 07:43:49;;;;;;;5.13;2.33;;;;;;;29.11;31.42;97437.66;4797174;29;20218;-71
2022/07/17 07:47:10;;;;;;;4.57;2.10;;;;;;;29.27;30.89;97431.41;4800200;29;20364;-73
2022/07/17 07:50:30;;;;;;;3.53;2.33;;;;;;;29.52;30.03;97428.41;4793140;29;20917;-72
2022/07/17 07:53:51;;;;;;;3.60;1.97;;;;;;;29.37;29.26;97443.53;4789965;29;20291;-68
2022/07/17 07:57:12;;;;;;;2.37;2.00;;;;;;;29.47;27.46;97441.44;4766534;29;20692;-71
2022/07/17 08:00:32;;;;;;;6.30;1.93;;;;;;;29.88;28.18;97452.69;4782746;29;20290;-70
2022/07/17 08:03:14;;;;;;;2.33;2.10;;;;;;;29.86;28.85;97443.19;4787028;29;20210;-70
2022/07/17 08:05:41;;;;;;;3.43;2.10;;;;;;;29.73;27.59;97455.31;4795078;29;20259;-70
2022/07/17 08:08:08;;;;;;;6.63;2.23;;;;;;;29.15;28.16;97464.84;4780842;29;20598;-71
2022/07/17 08:10:35;;;;;;;9.20;2.60;;;;;;;28.72;28.51;97469.69;4801509;29;20553;-70
2022/07/17 08:13:02;;;;;;;4.77;2.20;;;;;;;28.70;28.41;97465.53;4801683;29;20261;-70
2022/07/17 08:15:30;;;;;;;3.53;1.80;;;;;;;29.09;27.96;97465.53;4801223;29;20221;-70
2022/07/17 08:17:57;;;;;;;4.80;1.90;;;;;;;29.27;27.82;97458.09;4800978;29;20329;-71
2022/07/17 08:20:24;;;;;;;2.97;1.90;;;;;;;29.00;28.07;97470.06;4801527;29;20211;-70
2022/07/17 08:22:52;;;;;;;4.40;2.17;;;;;;;28.91;27.71;97476.47;4801298;29;20251;-71
2022/07/17 08:25:35;;;;;;;3.93;2.53;;;;;;;28.96;27.28;97477.59;4801382;29;20211;-71
2022/07/17 08:28:05;;;;;;;2.77;1.90;;;;;;;28.92;27.90;97460.28;4801229;29;20213;-71
2022/07/17 08:30:34;;;;;;;3.90;2.10;;;;;;;29.23;26.99;97475.47;4801227;29;20212;-70
2022/07/17 08:33:04;;;;;;;3.23;1.90;;;;;;;29.14;27.96;97485.31;4801233;29;20240;-70
2022/07/17 08:35:31;;;;;;;5.13;2.10;;;;;;;29.08;27.94;97479.88;4801103;29;20221;-70
2022/07/17 08:38:01;;;;;;;2.23;1.93;;;;;;;29.01;27.88;97486.91;4801554;29;20199;-70
2022/07/17 08:40:34;;;;;;;3.00;2.00;;;;;;;28.82;28.65;97478.31;4801006;29;20604;-70
2022/07/17 08:43:06;;;;;;;6.63;2.40;;;;;;;28.88;28.37;97485.63;4801242;29;20214;-70
2022/07/17 08:45:34;;;;;;;3.40;2.10;;;;;;;28.92;28.19;97484.28;4801203;29;20297;-70
2022/07/17 08:48:02;;;;;;;5.07;2.30;;;;;;;29.18;27.89;97481.34;4800951;29;20215;-70
2022/07/17 08:50:34;;;;;;;4.70;2.30;;;;;;;29.15;28.30;97470.19;4801217;29;20199;-70
2022/07/17 08:53:02;;;;;;;2.87;2.40;;;;;;;29.27;28.04;97466.94;4801062;29;20268;-70
2022/07/17 08:55:29;;;;;;;2.97;2.10;;;;;;;28.87;28.33;97478.63;4784653;29;20227;-71
2022/07/17 08:57:57;;;;;;;3.53;2.33;;;;;;;28.68;29.13;97480.88;4784541;29;20211;-71
2022/07/17 09:00:25;;;;;;;3.20;2.20;;;;;;;28.55;29.87;97480.53;4800532;29;20218;-71
2022/07/17 09:03:04;;;;;;;2.20;2.00;;;;;;;28.48;29.65;97476.91;4800590;29;20209;-70
2022/07/17 09:05:40;;;;;;;2.53;2.20;;;;;;;28.88;28.16;97480.28;4800411;29;20218;-70
2022/07/17 09:08:08;;;;;;;4.13;2.07;;;;;;;28.86;29.57;97481.47;4800396;29;20604;-70
2022/07/17 09:10:41;;;;;;;2.80;1.90;;;;;;;28.86;28.80;97481.47;4799870;29;20306;-71
2022/07/17 09:13:21;;;;;;;4.77;2.23;;;;;;;29.00;28.74;97469.25;4800180;29;20717;-70
2022/07/17 09:15:52;;;;;;;3.97;2.50;;;;;;;29.32;28.84;97493.13;4800090;29;20206;-70
2022/07/17 09:18:20;;;;;;;2.50;2.27;;;;;;;29.01;28.97;97484.25;4800612;29;20210;-70
2022/07/17 09:20:54;;;;;;;3.40;2.40;;;;;;;29.09;28.70;97476.19;4800286;29;20229;-70
2022/07/17 09:23:23;;;;;;;3.57;2.50;;;;;;;28.93;27.89;97472.59;4799983;29;20515;-71
2022/07/17 09:25:53;;;;;;;3.77;2.57;;;;;;;28.88;29.04;97480.28;4800200;29;20210;-70
2022/07/17 09:28:21;;;;;;;2.80;2.20;;;;;;;29.25;28.51;97492.97;4800011;29;20798;-71
2022/07/17 09:30:54;;;;;;;2.77;2.07;;;;;;;29.14;29.53;97480.00;4800301;29;20194;-70
2022/07/17 09:33:26;;;;;;;3.67;2.93;;;;;;;29.43;29.18;97477.50;4800334;29;20246;-71
2022/07/17 09:35:56;;;;;;;2.40;2.20;;;;;;;29.54;28.00;97455.75;4800177;29;20266;-71
2022/07/17 09:38:32;;;;;;;4.00;2.20;;;;;;;29.80;27.62;97479.44;4800275;29;20213;-71
2022/07/17 09:41:17;;;;;;;3.37;2.37;;;;;;;29.05;29.10;97481.06;4800557;29;20205;-71
2022/07/17 09:43:53;;;;;;;3.73;2.53;;;;;;;29.36;28.86;97468.56;4800180;29;20237;-71
2022/07/17 09:46:30;;;;;;;5.27;3.00;;;;;;;28.96;29.40;97498.09;4799976;29;20694;-70
2022/07/17 09:49:03;;;;;;;3.50;2.50;;;;;;;28.69;29.80;97485.19;4799952;29;20215;-70
2022/07/17 09:51:33;;;;;;;3.47;2.60;;;;;;;28.73;29.62;97475.84;4799800;29;20234;-69
2022/07/17 09:54:05;;;;;;;2.80;2.60;;;;;;;29.15;30.00;97483.53;4799668;29;20206;-70
2022/07/17 09:56:34;;;;;;;2.90;2.37;;;;;;;29.39;29.15;97472.69;4799834;29;20223;-70
2022/07/17 09:59:10;;;;;;;3.60;2.37;;;;;;;29.66;29.88;97491.72;4783637;29;20295;-70
2022/07/17 10:01:41;;;;;;;4.93;2.37;;;;;;;29.60;30.13;97487.09;4799817;29;20215;-70
2022/07/17 10:04:11;;;;;;;2.53;2.33;;;;;;;29.42;29.74;97485.72;4799453;29;20712;-70
2022/07/17 10:06:38;;;;;;;5.30;2.20;;;;;;;29.67;29.74;97487.22;4799806;29;20668;-70
2022/07/17 10:09:06;;;;;;;3.70;2.60;;;;;;;29.81;29.88;97493.63;4783111;29;20658;-70
2022/07/17 10:11:38;;;;;;;3.73;2.57;;;;;;;30.06;29.83;97476.41;4799505;29;20238;-70
2022/07/17 10:14:53;;;;;;;4.30;2.27;;;;;;;30.25;28.75;97471.34;4797409;29;20211;-70
2022/07/17 10:18:03;;;;;;;5.70;2.40;;;;;;;30.31;28.57;97475.19;4787940;29;20242;-70
2022/07/17 10:20:30;;;;;;;2.80;2.30;;;;;;;30.51;28.56;97466.47;4786949;29;20232;-70
2022/07/17 10:22:57;;;;;;;2.47;2.27;;;;;;;30.17;28.32;97460.75;4798929;29;20255;-71
2022/07/17 10:25:24;;;;;;;4.67;2.90;;;;;;;29.90;29.52;97466.69;4799118;29;20262;-70
2022/07/17 10:27:55;;;;;;;4.97;2.40;;;;;;;30.00;28.88;97467.28;4799743;29;20207;-71
2022/07/17 10:30:27;;;;;;;4.20;2.47;;;;;;;29.99;29.24;97449.56;4799401;29;20366;-71
2022/07/17 10:32:59;;;;;;;4.30;2.30;;;;;;;30.04;28.74;97446.38;4799647;29;20246;-71
2022/07/17 10:35:28;;;;;;;2.93;2.60;;;;;;;29.97;29.13;97462.28;4783679;29;20740;-71
2022/07/17 10:38:13;;;;;;;3.80;2.00;;;;;;;30.18;28.35;97456.25;4799767;29;20222;-70
2022/07/17 10:40:41;;;;;;;4.87;2.80;;;;;;;30.01;28.16;97460.91;4799949;29;20280;-71
2022/07/17 10:43:09;;;;;;;3.00;2.60;;;;;;;30.19;28.28;97450.72;4799634;29;20797;-71
2022/07/17 10:45:45;;;;;;;4.13;2.47;;;;;;;30.33;27.94;97452.63;4799720;29;20624;-71
2022/07/17 10:48:16;;;;;;;4.00;2.33;;;;;;;30.18;28.42;97459.75;4799627;29;20198;-71
2022/07/17 10:50:52;;;;;;;3.60;2.20;;;;;;;30.08;29.50;97461.84;4799646;29;20271;-72
2022/07/17 10:53:31;;;;;;;4.20;2.27;;;;;;;30.13;28.85;97450.63;4799527;29;20337;-69
2022/07/17 10:56:05;;;;;;;3.57;2.67;;;;;;;30.35;28.75;97447.94;4799240;29;20209;-70
2022/07/17 10:58:37;;;;;;;4.07;2.43;;;;;;;30.40;28.79;97453.53;4799364;29;20626;-69
2022/07/17 11:01:12;;;;;;;3.97;2.57;;;;;;;30.43;29.02;97457.69;4799191;29;20230;-70
2022/07/17 11:03:44;;;;;;;3.37;2.50;;;;;;;30.57;28.33;97446.16;4791701;29;20609;-70
2022/07/17 11:06:14;;;;;;;4.27;2.83;;;;;;;30.85;28.11;97443.69;4791492;29;20203;-70
2022/07/17 11:08:42;;;;;;;3.70;2.17;;;;;;;30.96;28.67;97437.84;4797931;29;20293;-70
2022/07/17 11:11:10;;;;;;;5.53;2.70;;;;;;;31.08;27.80;97434.50;4799582;29;20210;-70
2022/07/17 11:13:45;;;;;;;3.10;2.27;;;;;;;31.13;27.67;97444.66;4791350;29;20229;-70
2022/07/17 11:16:12;;;;;;;2.63;2.10;;;;;;;30.29;27.65;97451.34;4798844;29;20943;-70
2022/07/17 11:18:47;;;;;;;4.93;2.50;;;;;;;29.86;28.44;97448.53;4799359;29;20278;-69
2022/07/17 11:21:14;;;;;;;3.80;2.53;;;;;;;29.77;28.56;97436.25;4803850;29;20214;-69
2022/07/17 11:23:51;;;;;;;3.47;2.57;;;;;;;29.97;28.17;97435.56;4799271;29;20275;-71
2022/07/17 11:26:20;;;;;;;2.97;2.60;;;;;;;29.97;29.11;97416.88;4799435;29;20271;-70
2022/07/17 11:28:48;;;;;;;2.47;2.27;;;;;;;30.15;28.45;97440.59;4793277;29;20214;-69
2022/07/17 11:31:16;;;;;;;5.43;2.47;;;;;;;30.09;27.89;97426.09;4799236;29;20232;-71
2022/07/17 11:34:11;;;;;;;2.60;2.40;;;;;;;30.16;28.02;97416.34;4802088;29;20317;-70
2022/07/17 11:36:41;;;;;;;3.83;2.40;;;;;;;30.49;27.60;97415.00;4801621;29;20322;-71
2022/07/17 11:39:13;;;;;;;6.97;2.60;;;;;;;30.46;27.75;97410.03;4802536;29;20206;-70
2022/07/17 11:41:52;;;;;;;4.83;2.50;;;;;;;30.44;26.64;97417.41;4802409;29;20305;-70
2022/07/17 11:44:21;;;;;;;4.03;2.40;;;;;;;30.33;27.84;97409.84;4801175;29;20319;-70
2022/07/17 11:46:50;;;;;;;2.87;2.37;;;;;;;30.60;27.16;97407.53;4802412;29;20210;-70
2022/07/17 11:49:33;;;;;;;4.17;2.20;;;;;;;30.53;27.34;97421.66;4802274;29;20209;-70